sensor_id;sensor_type;location;lat;lon;timestamp;temperature;humidity
23685;DHT22;12020;51.384;6.908;2022-08-11T00:00:10;21.40;93.00
23685;DHT22;12020;51.384;6.908;2022-08-11T00:02:45;21.30;93.20
23685;DHT22;12020;51.384;6.908;2022-08-11T00:05:15;21.30;93.50
23685;DHT22;12020;51.384;6.908;2022-08-11T00:07:51;21.20;93.50
23685;DHT22;12020;51.384;6.908;2022-08-11T00:10:26;21.20;93.80
23685;DHT22;12020;51.384;6.908;2022-08-11T00:13:00;21.10;94.00
23685;DHT22;12020;51.384;6.908;2022-08-11T00:15:37;21.10;94.20
23685;DHT22;12020;51.384;6.908;2022-08-11T00:18:04;21.00;94.30
23685;DHT22;12020;51.384;6.908;2022-08-11T00:20:32;20.90;94.60
23685;DHT22;12020;51.384;6.908;2022-08-11T00:23:05;20.90;94.90
23685;DHT22;12020;51.384;6.908;2022-08-11T00:25:38;20.80;95.40
23685;DHT22;12020;51.384;6.908;2022-08-11T00:28:04;20.80;95.30
23685;DHT22;12020;51.384;6.908;2022-08-11T00:30:47;20.70;95.40
23685;DHT22;12020;51.384;6.908;2022-08-11T00:33:14;20.70;95.40
23685;DHT22;12020;51.384;6.908;2022-08-11T00:35:42;20.60;95.90
23685;DHT22;12020;51.384;6.908;2022-08-11T00:38:09;20.60;96.10
23685;DHT22;12020;51.384;6.908;2022-08-11T00:40:44;20.50;96.30
23685;DHT22;12020;51.384;6.908;2022-08-11T00:46:12;20.40;96.80
23685;DHT22;12020;51.384;6.908;2022-08-11T00:49:03;20.40;96.90
23685;DHT22;12020;51.384;6.908;2022-08-11T00:51:46;20.30;97.10
23685;DHT22;12020;51.384;6.908;2022-08-11T00:54:53;20.20;97.30
23685;DHT22;12020;51.384;6.908;2022-08-11T01:00:25;20.10;97.70
23685;DHT22;12020;51.384;6.908;2022-08-11T01:19:36;19.70;99.10
23685;DHT22;12020;51.384;6.908;2022-08-11T01:45:28;19.30;99.90
23685;DHT22;12020;51.384;6.908;2022-08-11T02:01:43;19.00;99.90
23685;DHT22;12020;51.384;6.908;2022-08-11T02:04:37;18.90;99.90
23685;DHT22;12020;51.384;6.908;2022-08-11T02:07:25;18.90;99.90
23685;DHT22;12020;51.384;6.908;2022-08-11T02:10:26;18.90;99.90
23685;DHT22;12020;51.384;6.908;2022-08-11T02:18:46;18.70;99.90
23685;DHT22;12020;51.384;6.908;2022-08-11T02:22:00;18.70;99.90
23685;DHT22;12020;51.384;6.908;2022-08-11T04:17:16;17.40;99.90
23685;DHT22;12020;51.384;6.908;2022-08-11T04:25:55;17.30;99.90
23685;DHT22;12020;51.384;6.908;2022-08-11T04:28:51;17.30;99.90
23685;DHT22;12020;51.384;6.908;2022-08-11T04:31:37;17.20;99.90
23685;DHT22;12020;51.384;6.908;2022-08-11T04:57:39;16.90;99.90
23685;DHT22;12020;51.384;6.908;2022-08-11T05:00:31;17.00;99.90
23685;DHT22;12020;51.384;6.908;2022-08-11T05:09:02;17.60;99.90
23685;DHT22;12020;51.384;6.908;2022-08-11T05:14:31;17.50;99.90
23685;DHT22;12020;51.384;6.908;2022-08-11T05:20:24;17.40;99.90
23685;DHT22;12020;51.384;6.908;2022-08-11T05:23:10;17.40;99.90
23685;DHT22;12020;51.384;6.908;2022-08-11T05:25:58;17.40;99.90
23685;DHT22;12020;51.384;6.908;2022-08-11T05:28:54;17.40;99.90
23685;DHT22;12020;51.384;6.908;2022-08-11T05:31:42;17.40;99.90
23685;DHT22;12020;51.384;6.908;2022-08-11T05:34:51;17.40;99.90
23685;DHT22;12020;51.384;6.908;2022-08-11T05:37:30;17.40;99.90
23685;DHT22;12020;51.384;6.908;2022-08-11T05:40:05;17.40;99.90
23685;DHT22;12020;51.384;6.908;2022-08-11T05:43:00;17.40;99.90
23685;DHT22;12020;51.384;6.908;2022-08-11T05:46:05;17.40;99.90
23685;DHT22;12020;51.384;6.908;2022-08-11T05:48:52;17.40;99.90
23685;DHT22;12020;51.384;6.908;2022-08-11T05:51:41;17.40;99.90
23685;DHT22;12020;51.384;6.908;2022-08-11T05:54:27;17.40;99.90
23685;DHT22;12020;51.384;6.908;2022-08-11T05:57:37;17.50;99.90
23685;DHT22;12020;51.384;6.908;2022-08-11T06:00:06;17.50;99.90
23685;DHT22;12020;51.384;6.908;2022-08-11T06:02:52;17.50;99.90
23685;DHT22;12020;51.384;6.908;2022-08-11T06:05:22;17.60;99.90
23685;DHT22;12020;51.384;6.908;2022-08-11T06:07:48;17.60;99.90
23685;DHT22;12020;51.384;6.908;2022-08-11T06:10:31;17.70;99.90
23685;DHT22;12020;51.384;6.908;2022-08-11T06:13:00;17.70;99.90
23685;DHT22;12020;51.384;6.908;2022-08-11T06:15:27;17.80;99.90
23685;DHT22;12020;51.384;6.908;2022-08-11T06:17:54;17.80;99.90
23685;DHT22;12020;51.384;6.908;2022-08-11T06:20:21;17.90;99.90
23685;DHT22;12020;51.384;6.908;2022-08-11T06:22:55;17.90;99.90
23685;DHT22;12020;51.384;6.908;2022-08-11T06:25:22;18.00;99.90
23685;DHT22;12020;51.384;6.908;2022-08-11T06:27:55;18.00;99.90
23685;DHT22;12020;51.384;6.908;2022-08-11T06:30:33;18.10;99.90
23685;DHT22;12020;51.384;6.908;2022-08-11T06:33:08;18.20;99.90
23685;DHT22;12020;51.384;6.908;2022-08-11T06:35:37;18.20;99.90
23685;DHT22;12020;51.384;6.908;2022-08-11T06:38:52;18.30;99.90
23685;DHT22;12020;51.384;6.908;2022-08-11T06:41:03;18.30;99.90
23685;DHT22;12020;51.384;6.908;2022-08-11T06:46:36;18.50;99.90
23685;DHT22;12020;51.384;6.908;2022-08-11T06:49:05;18.50;99.90
23685;DHT22;12020;51.384;6.908;2022-08-11T06:51:34;18.60;99.90
23685;DHT22;12020;51.384;6.908;2022-08-11T06:54:03;18.60;99.90
23685;DHT22;12020;51.384;6.908;2022-08-11T06:56:32;18.70;99.90
23685;DHT22;12020;51.384;6.908;2022-08-11T06:59:18;18.70;99.90
23685;DHT22;12020;51.384;6.908;2022-08-11T07:13:33;19.20;99.90
23685;DHT22;12020;51.384;6.908;2022-08-11T07:16:27;19.30;99.90
23685;DHT22;12020;51.384;6.908;2022-08-11T07:19:04;19.40;99.90
23685;DHT22;12020;51.384;6.908;2022-08-11T07:21:49;19.50;99.90
23685;DHT22;12020;51.384;6.908;2022-08-11T07:24:49;19.60;99.90
23685;DHT22;12020;51.384;6.908;2022-08-11T07:27:44;19.70;99.90
23685;DHT22;12020;51.384;6.908;2022-08-11T07:30:29;19.80;99.90
23685;DHT22;12020;51.384;6.908;2022-08-11T07:32:59;19.90;99.90
23685;DHT22;12020;51.384;6.908;2022-08-11T07:35:47;20.10;99.90
23685;DHT22;12020;51.384;6.908;2022-08-11T07:38:18;20.20;99.90
23685;DHT22;12020;51.384;6.908;2022-08-11T07:40:46;20.30;99.90
23685;DHT22;12020;51.384;6.908;2022-08-11T07:43:13;20.50;99.90
23685;DHT22;12020;51.384;6.908;2022-08-11T07:45:44;20.70;99.90
23685;DHT22;12020;51.384;6.908;2022-08-11T07:48:29;20.90;99.90
23685;DHT22;12020;51.384;6.908;2022-08-11T07:51:18;21.10;99.90
23685;DHT22;12020;51.384;6.908;2022-08-11T07:54:04;21.30;99.90
23685;DHT22;12020;51.384;6.908;2022-08-11T07:56:37;21.60;99.90
23685;DHT22;12020;51.384;6.908;2022-08-11T07:59:04;21.90;99.90
23685;DHT22;12020;51.384;6.908;2022-08-11T08:01:49;22.20;99.90
23685;DHT22;12020;51.384;6.908;2022-08-11T08:04:34;22.50;99.90
23685;DHT22;12020;51.384;6.908;2022-08-11T08:07:20;22.90;99.90
23685;DHT22;12020;51.384;6.908;2022-08-11T08:10:07;23.20;99.90
23685;DHT22;12020;51.384;6.908;2022-08-11T08:12:53;23.60;99.90
23685;DHT22;12020;51.384;6.908;2022-08-11T08:15:39;24.00;99.90
23685;DHT22;12020;51.384;6.908;2022-08-11T08:18:24;24.40;99.90
23685;DHT22;12020;51.384;6.908;2022-08-11T08:20:50;24.70;99.90
23685;DHT22;12020;51.384;6.908;2022-08-11T08:23:22;25.00;99.90
23685;DHT22;12020;51.384;6.908;2022-08-11T08:26:05;25.20;99.90
23685;DHT22;12020;51.384;6.908;2022-08-11T08:28:52;25.50;99.90
23685;DHT22;12020;51.384;6.908;2022-08-11T08:31:19;25.80;99.90
23685;DHT22;12020;51.384;6.908;2022-08-11T08:33:45;26.10;99.90
23685;DHT22;12020;51.384;6.908;2022-08-11T08:36:11;26.40;99.90
23685;DHT22;12020;51.384;6.908;2022-08-11T08:38:47;26.70;98.90
23685;DHT22;12020;51.384;6.908;2022-08-11T08:41:18;26.90;97.30
23685;DHT22;12020;51.384;6.908;2022-08-11T08:43:47;27.10;96.40
23685;DHT22;12020;51.384;6.908;2022-08-11T08:46:16;27.40;95.90
23685;DHT22;12020;51.384;6.908;2022-08-11T08:48:45;27.60;93.20
23685;DHT22;12020;51.384;6.908;2022-08-11T08:51:12;27.70;92.40
23685;DHT22;12020;51.384;6.908;2022-08-11T08:54:22;27.90;92.40
23685;DHT22;12020;51.384;6.908;2022-08-11T08:56:48;28.10;91.10
23685;DHT22;12020;51.384;6.908;2022-08-11T08:59:21;28.30;90.30
23685;DHT22;12020;51.384;6.908;2022-08-11T09:02:00;28.50;90.30
23685;DHT22;12020;51.384;6.908;2022-08-11T09:04:28;28.70;89.30
23685;DHT22;12020;51.384;6.908;2022-08-11T09:06:58;28.90;87.40
23685;DHT22;12020;51.384;6.908;2022-08-11T09:09:24;29.00;86.70
23685;DHT22;12020;51.384;6.908;2022-08-11T09:11:51;29.20;85.60
23685;DHT22;12020;51.384;6.908;2022-08-11T09:14:21;29.40;83.60
23685;DHT22;12020;51.384;6.908;2022-08-11T09:16:47;29.50;84.10
23685;DHT22;12020;51.384;6.908;2022-08-11T09:19:16;29.70;80.40
23685;DHT22;12020;51.384;6.908;2022-08-11T09:21:49;29.90;83.00
23685;DHT22;12020;51.384;6.908;2022-08-11T09:24:36;30.10;80.60
23685;DHT22;12020;51.384;6.908;2022-08-11T09:27:21;30.30;76.80
23685;DHT22;12020;51.384;6.908;2022-08-11T09:29:49;30.50;74.40
23685;DHT22;12020;51.384;6.908;2022-08-11T09:32:20;30.70;71.90
23685;DHT22;12020;51.384;6.908;2022-08-11T09:34:49;30.80;71.10
23685;DHT22;12020;51.384;6.908;2022-08-11T09:37:17;30.80;69.60
23685;DHT22;12020;51.384;6.908;2022-08-11T09:40:02;30.90;71.90
23685;DHT22;12020;51.384;6.908;2022-08-11T09:42:47;31.00;70.50
23685;DHT22;12020;51.384;6.908;2022-08-11T09:45:33;31.20;70.60
23685;DHT22;12020;51.384;6.908;2022-08-11T09:48:00;31.30;68.00
23685;DHT22;12020;51.384;6.908;2022-08-11T09:50:33;31.30;68.60
23685;DHT22;12020;51.384;6.908;2022-08-11T09:52:59;31.30;70.70
23685;DHT22;12020;51.384;6.908;2022-08-11T09:55:27;31.40;71.20
23685;DHT22;12020;51.384;6.908;2022-08-11T09:57:53;31.50;64.20
23685;DHT22;12020;51.384;6.908;2022-08-11T10:00:37;31.50;60.70
23685;DHT22;12020;51.384;6.908;2022-08-11T10:03:25;31.60;60.60
23685;DHT22;12020;51.384;6.908;2022-08-11T10:05:57;31.80;59.40
23685;DHT22;12020;51.384;6.908;2022-08-11T10:08:42;31.90;58.10
23685;DHT22;12020;51.384;6.908;2022-08-11T10:11:11;32.00;59.60
23685;DHT22;12020;51.384;6.908;2022-08-11T10:13:42;32.00;60.10
23685;DHT22;12020;51.384;6.908;2022-08-11T10:16:29;32.00;58.90
23685;DHT22;12020;51.384;6.908;2022-08-11T10:18:59;32.10;59.30
23685;DHT22;12020;51.384;6.908;2022-08-11T10:21:43;32.20;58.30
23685;DHT22;12020;51.384;6.908;2022-08-11T10:24:10;32.30;58.00
23685;DHT22;12020;51.384;6.908;2022-08-11T10:26:55;32.40;57.40
23685;DHT22;12020;51.384;6.908;2022-08-11T10:29:36;32.40;57.10
23685;DHT22;12020;51.384;6.908;2022-08-11T10:32:27;32.40;58.40
23685;DHT22;12020;51.384;6.908;2022-08-11T10:35:14;32.50;57.30
23685;DHT22;12020;51.384;6.908;2022-08-11T10:37:43;32.50;59.80
23685;DHT22;12020;51.384;6.908;2022-08-11T10:40:15;32.50;58.40
23685;DHT22;12020;51.384;6.908;2022-08-11T10:42:42;32.60;58.50
23685;DHT22;12020;51.384;6.908;2022-08-11T10:45:29;32.60;59.10
23685;DHT22;12020;51.384;6.908;2022-08-11T10:48:14;32.70;57.70
23685;DHT22;12020;51.384;6.908;2022-08-11T10:50:45;32.70;58.20
23685;DHT22;12020;51.384;6.908;2022-08-11T10:53:31;32.70;58.60
23685;DHT22;12020;51.384;6.908;2022-08-11T10:56:16;32.80;58.20
23685;DHT22;12020;51.384;6.908;2022-08-11T10:59:02;32.80;57.30
23685;DHT22;12020;51.384;6.908;2022-08-11T11:01:34;32.70;56.70
23685;DHT22;12020;51.384;6.908;2022-08-11T11:04:06;32.60;56.20
23685;DHT22;12020;51.384;6.908;2022-08-11T11:09:57;32.40;56.90
23685;DHT22;12020;51.384;6.908;2022-08-11T11:15:18;32.30;56.40
23685;DHT22;12020;51.384;6.908;2022-08-11T11:18:10;32.30;56.80
23685;DHT22;12020;51.384;6.908;2022-08-11T11:37:09;32.30;57.10
23685;DHT22;12020;51.384;6.908;2022-08-11T11:39:40;32.30;56.60
23685;DHT22;12020;51.384;6.908;2022-08-11T11:42:08;32.40;55.90
23685;DHT22;12020;51.384;6.908;2022-08-11T11:44:37;32.40;56.60
23685;DHT22;12020;51.384;6.908;2022-08-11T11:47:03;32.30;55.30
23685;DHT22;12020;51.384;6.908;2022-08-11T11:49:30;32.30;55.50
23685;DHT22;12020;51.384;6.908;2022-08-11T11:51:57;32.20;54.90
23685;DHT22;12020;51.384;6.908;2022-08-11T11:54:27;32.20;56.10
23685;DHT22;12020;51.384;6.908;2022-08-11T11:56:54;32.20;55.00
23685;DHT22;12020;51.384;6.908;2022-08-11T11:59:22;32.10;55.40
23685;DHT22;12020;51.384;6.908;2022-08-11T12:02:08;32.10;56.80
23685;DHT22;12020;51.384;6.908;2022-08-11T12:04:43;32.10;57.00
23685;DHT22;12020;51.384;6.908;2022-08-11T12:07:12;32.10;55.70
23685;DHT22;12020;51.384;6.908;2022-08-11T12:09:57;32.10;56.10
23685;DHT22;12020;51.384;6.908;2022-08-11T12:12:24;32.10;55.70
23685;DHT22;12020;51.384;6.908;2022-08-11T12:15:09;32.10;55.70
23685;DHT22;12020;51.384;6.908;2022-08-11T12:17:36;32.10;55.90
23685;DHT22;12020;51.384;6.908;2022-08-11T12:20:04;32.00;55.10
23685;DHT22;12020;51.384;6.908;2022-08-11T12:22:30;31.90;55.10
23685;DHT22;12020;51.384;6.908;2022-08-11T12:25:16;31.90;56.30
23685;DHT22;12020;51.384;6.908;2022-08-11T12:28:01;31.80;56.90
23685;DHT22;12020;51.384;6.908;2022-08-11T12:30:27;31.90;56.90
23685;DHT22;12020;51.384;6.908;2022-08-11T12:32:54;31.80;55.70
23685;DHT22;12020;51.384;6.908;2022-08-11T12:35:21;31.80;55.40
23685;DHT22;12020;51.384;6.908;2022-08-11T12:37:49;31.80;56.00
23685;DHT22;12020;51.384;6.908;2022-08-11T12:40:23;31.80;56.70
23685;DHT22;12020;51.384;6.908;2022-08-11T12:43:15;31.80;55.90
23685;DHT22;12020;51.384;6.908;2022-08-11T12:46:03;31.80;56.70
23685;DHT22;12020;51.384;6.908;2022-08-11T12:48:32;31.80;56.30
23685;DHT22;12020;51.384;6.908;2022-08-11T12:51:23;31.70;56.30
23685;DHT22;12020;51.384;6.908;2022-08-11T12:54:13;31.70;55.50
23685;DHT22;12020;51.384;6.908;2022-08-11T12:56:44;31.70;55.80
23685;DHT22;12020;51.384;6.908;2022-08-11T12:59:30;31.70;57.10
23685;DHT22;12020;51.384;6.908;2022-08-11T13:02:16;31.70;57.80
23685;DHT22;12020;51.384;6.908;2022-08-11T13:05:04;31.70;56.50
23685;DHT22;12020;51.384;6.908;2022-08-11T13:07:32;31.60;56.80
23685;DHT22;12020;51.384;6.908;2022-08-11T13:10:00;31.60;57.40
23685;DHT22;12020;51.384;6.908;2022-08-11T13:12:27;31.60;57.60
23685;DHT22;12020;51.384;6.908;2022-08-11T13:15:20;31.50;57.10
23685;DHT22;12020;51.384;6.908;2022-08-11T13:17:50;31.50;58.00
23685;DHT22;12020;51.384;6.908;2022-08-11T13:20:20;31.50;58.70
23685;DHT22;12020;51.384;6.908;2022-08-11T13:22:48;31.50;57.60
23685;DHT22;12020;51.384;6.908;2022-08-11T13:25:19;31.50;57.60
23685;DHT22;12020;51.384;6.908;2022-08-11T13:27:47;31.50;57.20
23685;DHT22;12020;51.384;6.908;2022-08-11T13:30:14;31.50;56.20
23685;DHT22;12020;51.384;6.908;2022-08-11T13:32:59;31.40;57.50
23685;DHT22;12020;51.384;6.908;2022-08-11T13:35:28;31.40;57.30
23685;DHT22;12020;51.384;6.908;2022-08-11T13:37:55;31.40;56.00
23685;DHT22;12020;51.384;6.908;2022-08-11T13:40:22;31.40;55.30
23685;DHT22;12020;51.384;6.908;2022-08-11T13:42:50;31.30;56.60
23685;DHT22;12020;51.384;6.908;2022-08-11T13:45:16;31.30;56.00
23685;DHT22;12020;51.384;6.908;2022-08-11T13:47:43;31.30;56.20
23685;DHT22;12020;51.384;6.908;2022-08-11T13:50:09;31.30;56.40
23685;DHT22;12020;51.384;6.908;2022-08-11T13:52:39;31.30;56.30
23685;DHT22;12020;51.384;6.908;2022-08-11T13:55:08;31.30;56.50
23685;DHT22;12020;51.384;6.908;2022-08-11T13:57:35;31.30;55.50
23685;DHT22;12020;51.384;6.908;2022-08-11T14:00:04;31.20;56.50
23685;DHT22;12020;51.384;6.908;2022-08-11T14:02:40;31.20;57.60
23685;DHT22;12020;51.384;6.908;2022-08-11T14:05:13;31.20;56.10
23685;DHT22;12020;51.384;6.908;2022-08-11T14:07:57;31.10;55.60
23685;DHT22;12020;51.384;6.908;2022-08-11T14:10:27;31.10;57.40
23685;DHT22;12020;51.384;6.908;2022-08-11T14:12:59;31.10;57.00
23685;DHT22;12020;51.384;6.908;2022-08-11T14:15:45;31.10;56.20
23685;DHT22;12020;51.384;6.908;2022-08-11T14:20:42;31.10;58.00
23685;DHT22;12020;51.384;6.908;2022-08-11T14:23:32;31.10;57.40
23685;DHT22;12020;51.384;6.908;2022-08-11T14:25:59;31.10;56.90
23685;DHT22;12020;51.384;6.908;2022-08-11T14:28:44;31.10;57.40
23685;DHT22;12020;51.384;6.908;2022-08-11T14:31:14;31.10;56.50
23685;DHT22;12020;51.384;6.908;2022-08-11T14:33:40;31.10;56.00
23685;DHT22;12020;51.384;6.908;2022-08-11T14:36:09;31.10;56.60
23685;DHT22;12020;51.384;6.908;2022-08-11T14:38:38;31.10;56.50
23685;DHT22;12020;51.384;6.908;2022-08-11T14:41:06;31.10;58.20
23685;DHT22;12020;51.384;6.908;2022-08-11T14:43:52;31.10;56.80
23685;DHT22;12020;51.384;6.908;2022-08-11T14:46:38;31.10;58.10
23685;DHT22;12020;51.384;6.908;2022-08-11T14:49:23;31.00;56.30
23685;DHT22;12020;51.384;6.908;2022-08-11T14:51:51;31.00;56.60
23685;DHT22;12020;51.384;6.908;2022-08-11T14:54:25;31.00;56.20
23685;DHT22;12020;51.384;6.908;2022-08-11T14:57:09;31.00;56.30
23685;DHT22;12020;51.384;6.908;2022-08-11T14:59:36;30.90;56.20
23685;DHT22;12020;51.384;6.908;2022-08-11T15:02:03;30.90;55.90
23685;DHT22;12020;51.384;6.908;2022-08-11T15:04:49;30.90;56.10
23685;DHT22;12020;51.384;6.908;2022-08-11T15:07:15;30.80;56.80
23685;DHT22;12020;51.384;6.908;2022-08-11T15:09:43;30.80;55.70
23685;DHT22;12020;51.384;6.908;2022-08-11T15:12:10;30.80;57.20
23685;DHT22;12020;51.384;6.908;2022-08-11T15:14:46;30.80;58.10
23685;DHT22;12020;51.384;6.908;2022-08-11T15:17:31;30.80;55.80
23685;DHT22;12020;51.384;6.908;2022-08-11T15:20:00;30.70;55.50
23685;DHT22;12020;51.384;6.908;2022-08-11T15:22:45;30.70;56.20
23685;DHT22;12020;51.384;6.908;2022-08-11T15:25:31;30.70;55.80
23685;DHT22;12020;51.384;6.908;2022-08-11T15:27:59;30.70;55.80
23685;DHT22;12020;51.384;6.908;2022-08-11T15:30:50;30.70;55.70
23685;DHT22;12020;51.384;6.908;2022-08-11T15:33:38;30.70;56.20
23685;DHT22;12020;51.384;6.908;2022-08-11T15:36:24;30.60;56.80
23685;DHT22;12020;51.384;6.908;2022-08-11T15:39:31;30.60;55.80
23685;DHT22;12020;51.384;6.908;2022-08-11T15:42:18;30.60;57.00
23685;DHT22;12020;51.384;6.908;2022-08-11T15:45:07;30.50;56.00
23685;DHT22;12020;51.384;6.908;2022-08-11T15:47:58;30.50;55.30
23685;DHT22;12020;51.384;6.908;2022-08-11T15:50:38;30.50;56.00
23685;DHT22;12020;51.384;6.908;2022-08-11T15:53:15;30.50;55.30
23685;DHT22;12020;51.384;6.908;2022-08-11T15:55:42;30.50;55.60
23685;DHT22;12020;51.384;6.908;2022-08-11T15:58:11;30.50;55.10
23685;DHT22;12020;51.384;6.908;2022-08-11T16:01:00;30.40;55.10
23685;DHT22;12020;51.384;6.908;2022-08-11T16:03:49;30.40;55.70
23685;DHT22;12020;51.384;6.908;2022-08-11T16:06:47;30.40;56.10
23685;DHT22;12020;51.384;6.908;2022-08-11T16:09:17;30.40;55.40
23685;DHT22;12020;51.384;6.908;2022-08-11T16:11:46;30.40;55.30
23685;DHT22;12020;51.384;6.908;2022-08-11T16:14:17;30.40;55.30
23685;DHT22;12020;51.384;6.908;2022-08-11T16:17:05;30.40;55.60
23685;DHT22;12020;51.384;6.908;2022-08-11T16:19:33;30.40;56.60
23685;DHT22;12020;51.384;6.908;2022-08-11T16:22:05;30.40;56.30
23685;DHT22;12020;51.384;6.908;2022-08-11T16:24:34;30.30;55.80
23685;DHT22;12020;51.384;6.908;2022-08-11T16:27:00;30.30;55.60
23685;DHT22;12020;51.384;6.908;2022-08-11T16:29:28;30.30;55.50
23685;DHT22;12020;51.384;6.908;2022-08-11T16:31:57;30.30;55.50
23685;DHT22;12020;51.384;6.908;2022-08-11T16:34:44;30.20;56.20
23685;DHT22;12020;51.384;6.908;2022-08-11T16:37:32;30.20;56.60
23685;DHT22;12020;51.384;6.908;2022-08-11T16:40:19;30.20;55.90
23685;DHT22;12020;51.384;6.908;2022-08-11T16:42:48;30.20;55.30
23685;DHT22;12020;51.384;6.908;2022-08-11T16:45:33;30.20;55.30
23685;DHT22;12020;51.384;6.908;2022-08-11T16:48:21;30.10;55.40
23685;DHT22;12020;51.384;6.908;2022-08-11T16:50:48;30.10;55.40
23685;DHT22;12020;51.384;6.908;2022-08-11T16:53:14;30.10;55.30
23685;DHT22;12020;51.384;6.908;2022-08-11T16:55:44;30.10;55.60
23685;DHT22;12020;51.384;6.908;2022-08-11T16:58:12;30.10;55.30
23685;DHT22;12020;51.384;6.908;2022-08-11T17:00:57;30.10;55.50
23685;DHT22;12020;51.384;6.908;2022-08-11T17:03:25;30.00;56.70
23685;DHT22;12020;51.384;6.908;2022-08-11T17:06:27;30.00;56.20
23685;DHT22;12020;51.384;6.908;2022-08-11T17:09:17;30.00;56.40
23685;DHT22;12020;51.384;6.908;2022-08-11T17:12:05;30.00;56.40
23685;DHT22;12020;51.384;6.908;2022-08-11T17:14:59;29.90;56.40
23685;DHT22;12020;51.384;6.908;2022-08-11T17:17:36;29.90;56.10
23685;DHT22;12020;51.384;6.908;2022-08-11T17:20:07;29.80;56.10
23685;DHT22;12020;51.384;6.908;2022-08-11T17:22:36;29.80;57.00
23685;DHT22;12020;51.384;6.908;2022-08-11T17:25:23;29.80;56.80
23685;DHT22;12020;51.384;6.908;2022-08-11T17:27:51;29.80;58.30
23685;DHT22;12020;51.384;6.908;2022-08-11T17:30:19;29.70;57.20
23685;DHT22;12020;51.384;6.908;2022-08-11T17:32:48;29.70;57.20
23685;DHT22;12020;51.384;6.908;2022-08-11T17:35:39;29.60;57.10
23685;DHT22;12020;51.384;6.908;2022-08-11T17:40:40;29.50;56.50
23685;DHT22;12020;51.384;6.908;2022-08-11T17:43:29;29.50;56.40
23685;DHT22;12020;51.384;6.908;2022-08-11T17:46:17;29.40;56.70
23685;DHT22;12020;51.384;6.908;2022-08-11T17:49:04;29.40;57.30
23685;DHT22;12020;51.384;6.908;2022-08-11T17:51:36;29.30;57.90
23685;DHT22;12020;51.384;6.908;2022-08-11T17:54:22;29.30;59.00
23685;DHT22;12020;51.384;6.908;2022-08-11T17:57:08;29.20;57.50
23685;DHT22;12020;51.384;6.908;2022-08-11T17:59:56;29.20;57.70
23685;DHT22;12020;51.384;6.908;2022-08-11T18:05:11;29.10;57.90
23685;DHT22;12020;51.384;6.908;2022-08-11T18:07:40;29.00;57.80
23685;DHT22;12020;51.384;6.908;2022-08-11T18:10:30;29.00;58.40
23685;DHT22;12020;51.384;6.908;2022-08-11T18:13:20;28.90;57.80
23685;DHT22;12020;51.384;6.908;2022-08-11T18:16:07;28.90;58.60
23685;DHT22;12020;51.384;6.908;2022-08-11T18:18:54;28.80;59.50
23685;DHT22;12020;51.384;6.908;2022-08-11T18:21:42;28.70;59.10
23685;DHT22;12020;51.384;6.908;2022-08-11T18:24:32;28.70;59.40
23685;DHT22;12020;51.384;6.908;2022-08-11T18:27:21;28.60;58.60
23685;DHT22;12020;51.384;6.908;2022-08-11T18:30:07;28.60;58.60
23685;DHT22;12020;51.384;6.908;2022-08-11T18:32:58;28.50;58.50
23685;DHT22;12020;51.384;6.908;2022-08-11T18:35:50;28.40;58.80
23685;DHT22;12020;51.384;6.908;2022-08-11T18:38:38;28.40;59.00
23685;DHT22;12020;51.384;6.908;2022-08-11T18:41:26;28.30;60.00
23685;DHT22;12020;51.384;6.908;2022-08-11T18:44:13;28.30;59.60
23685;DHT22;12020;51.384;6.908;2022-08-11T18:47:02;28.10;60.20
23685;DHT22;12020;51.384;6.908;2022-08-11T18:49:50;28.10;61.30
23685;DHT22;12020;51.384;6.908;2022-08-11T18:52:40;28.00;64.50
23685;DHT22;12020;51.384;6.908;2022-08-11T18:55:29;27.90;67.70
23685;DHT22;12020;51.384;6.908;2022-08-11T18:58:20;27.80;71.60
23685;DHT22;12020;51.384;6.908;2022-08-11T19:01:07;27.60;70.60
23685;DHT22;12020;51.384;6.908;2022-08-11T19:03:55;27.50;71.40
23685;DHT22;12020;51.384;6.908;2022-08-11T19:06:43;27.30;70.00
23685;DHT22;12020;51.384;6.908;2022-08-11T19:09:29;27.20;66.90
23685;DHT22;12020;51.384;6.908;2022-08-11T19:12:15;27.10;70.90
23685;DHT22;12020;51.384;6.908;2022-08-11T19:15:01;27.00;72.50
23685;DHT22;12020;51.384;6.908;2022-08-11T19:17:48;26.90;73.30
23685;DHT22;12020;51.384;6.908;2022-08-11T19:20:35;26.80;73.60
23685;DHT22;12020;51.384;6.908;2022-08-11T19:23:26;26.60;74.40
23685;DHT22;12020;51.384;6.908;2022-08-11T19:26:14;26.60;74.30
23685;DHT22;12020;51.384;6.908;2022-08-11T19:29:02;26.40;75.10
23685;DHT22;12020;51.384;6.908;2022-08-11T19:31:49;26.40;75.30
23685;DHT22;12020;51.384;6.908;2022-08-11T19:34:36;26.20;76.00
23685;DHT22;12020;51.384;6.908;2022-08-11T19:37:22;26.20;75.90
23685;DHT22;12020;51.384;6.908;2022-08-11T19:40:07;26.00;76.20
23685;DHT22;12020;51.384;6.908;2022-08-11T19:42:56;26.00;77.00
23685;DHT22;12020;51.384;6.908;2022-08-11T19:45:42;25.90;77.30
23685;DHT22;12020;51.384;6.908;2022-08-11T19:48:28;25.80;78.70
23685;DHT22;12020;51.384;6.908;2022-08-11T19:51:13;25.70;76.40
23685;DHT22;12020;51.384;6.908;2022-08-11T19:53:58;25.60;77.60
23685;DHT22;12020;51.384;6.908;2022-08-11T19:56:44;25.60;78.30
23685;DHT22;12020;51.384;6.908;2022-08-11T19:59:32;25.50;78.20
23685;DHT22;12020;51.384;6.908;2022-08-11T20:02:17;25.40;78.60
23685;DHT22;12020;51.384;6.908;2022-08-11T20:05:01;25.30;77.10
23685;DHT22;12020;51.384;6.908;2022-08-11T20:07:46;25.30;77.50
23685;DHT22;12020;51.384;6.908;2022-08-11T20:10:33;25.20;78.50
23685;DHT22;12020;51.384;6.908;2022-08-11T20:13:21;25.10;78.40
23685;DHT22;12020;51.384;6.908;2022-08-11T20:16:07;25.10;77.50
23685;DHT22;12020;51.384;6.908;2022-08-11T20:18:53;25.00;78.50
23685;DHT22;12020;51.384;6.908;2022-08-11T20:21:40;25.00;78.60
23685;DHT22;12020;51.384;6.908;2022-08-11T20:24:26;24.90;79.80
23685;DHT22;12020;51.384;6.908;2022-08-11T20:27:11;24.90;80.40
23685;DHT22;12020;51.384;6.908;2022-08-11T20:29:57;24.90;80.60
23685;DHT22;12020;51.384;6.908;2022-08-11T20:32:44;24.80;81.10
23685;DHT22;12020;51.384;6.908;2022-08-11T20:35:30;24.70;80.10
23685;DHT22;12020;51.384;6.908;2022-08-11T20:38:16;24.70;80.50
23685;DHT22;12020;51.384;6.908;2022-08-11T20:41:02;24.70;80.90
23685;DHT22;12020;51.384;6.908;2022-08-11T20:43:47;24.60;81.80
23685;DHT22;12020;51.384;6.908;2022-08-11T20:46:36;24.50;81.50
23685;DHT22;12020;51.384;6.908;2022-08-11T20:49:22;24.50;82.10
23685;DHT22;12020;51.384;6.908;2022-08-11T20:52:08;24.40;82.10
23685;DHT22;12020;51.384;6.908;2022-08-11T20:54:53;24.40;81.80
23685;DHT22;12020;51.384;6.908;2022-08-11T20:57:38;24.30;83.20
23685;DHT22;12020;51.384;6.908;2022-08-11T21:00:23;24.20;83.00
23685;DHT22;12020;51.384;6.908;2022-08-11T21:03:08;24.20;79.70
23685;DHT22;12020;51.384;6.908;2022-08-11T21:05:53;24.20;80.60